Terminal Aerodrome Forecast
Issued by NWS Sioux Falls, SD

Home | Current Version | Previous Version | Graphics & Text | Print | Product List | Glossary On
Versions: 1 2 3 4 5 6 7 8 9 10 11 12
890
FTUS43 KFSD 291720
TAFHON
TAF
KHON 291720Z 2918/3018 32017G26KT P6SM OVC045
     FM300100 32011KT P6SM SCT070
     FM300300 31005KT P6SM SCT150
     FM301300 31009KT P6SM FEW200
     FM301500 32013G19KT P6SM FEW150=

USA.gov is the U.S. government's official web portal to all federal, state and local government web resources and services.